Time;durP1;ratioP1;P1;durP2;ratioP2;P2;SDS_P1;SDS_P2;PMS_P1;PMS_P2;Temp;Humidity;BMP_temperature;BMP_pressure;BME280_temperature;BME280_humidity;BME280_pressure;Samples;Min_cycle;Max_cycle;Signal;HPM_P1;HPM_P2
2022/09/18 00:01:38;;;;;;;406.75;273.17;;;11.10;99.90;;;11.19;100.00;100133.19;5025678;28;20235;-80
2022/09/18 00:04:09;;;;;;;396.77;255.65;;;11.10;99.90;;;11.19;100.00;100138.47;5014724;28;20231;-80
2022/09/18 00:06:40;;;;;;;401.42;269.85;;;11.10;99.90;;;11.18;100.00;100137.59;5023863;28;20215;-79
2022/09/18 00:09:13;;;;;;;410.13;273.58;;;11.10;99.90;;;11.14;100.00;100133.19;5007213;28;20662;-79
2022/09/18 00:11:45;;;;;;;411.85;283.88;;;11.10;99.90;;;11.19;100.00;100134.06;5020466;28;20218;-81
2022/09/18 00:14:18;;;;;;;418.67;291.45;;;11.60;99.90;;;11.25;100.00;100127.03;5022176;28;20673;-80
2022/09/18 00:16:47;;;;;;;403.02;271.23;;;11.20;99.90;;;11.26;100.00;100131.44;5022204;28;20211;-80
2022/09/18 00:19:16;;;;;;;416.50;281.80;;;11.20;99.90;;;11.33;100.00;100138.50;5026182;28;20668;-79
2022/09/18 00:21:48;;;;;;;414.52;273.58;;;11.20;99.90;;;11.27;100.00;100127.91;5005340;28;20673;-80
2022/09/18 00:24:17;;;;;;;414.10;280.05;;;11.20;99.90;;;11.28;100.00;100132.31;5021769;28;20227;-82
2022/09/18 00:26:46;;;;;;;415.13;286.00;;;11.20;99.90;;;11.22;100.00;100136.72;5019763;28;20327;-80
2022/09/18 00:29:16;;;;;;;406.15;266.77;;;11.20;99.90;;;11.21;100.00;100137.59;5022738;28;20207;-80
2022/09/18 00:31:45;;;;;;;409.70;279.67;;;11.10;99.90;;;11.26;100.00;100144.69;5004526;28;20230;-81
2022/09/18 00:34:14;;;;;;;408.48;275.38;;;11.20;99.90;;;11.25;100.00;100141.16;5019471;28;20214;-79
2022/09/18 00:36:42;;;;;;;404.00;275.70;;;11.10;99.90;;;11.22;100.00;100143.78;5005368;28;20215;-80
2022/09/18 00:39:11;;;;;;;417.23;278.77;;;11.20;99.90;;;11.21;100.00;100139.38;4997166;28;20215;-80
2022/09/18 00:41:42;;;;;;;414.98;275.98;;;11.20;99.90;;;11.21;100.00;100144.66;5015952;28;20615;-80
2022/09/18 00:44:28;;;;;;;408.70;277.98;;;11.10;99.90;;;11.23;100.00;100149.09;5018611;28;20232;-81
2022/09/18 00:47:27;;;;;;;403.50;267.67;;;11.20;99.90;;;11.22;100.00;100155.25;5020818;28;20223;-80
2022/09/18 00:50:08;;;;;;;410.35;272.45;;;11.10;99.90;;;11.26;100.00;100150.84;4997510;28;20214;-81
2022/09/18 00:52:53;;;;;;;403.38;267.25;;;11.20;99.90;;;11.20;100.00;100158.78;5019745;28;20213;-79
2022/09/18 00:55:28;;;;;;;416.58;281.98;;;11.10;99.90;;;11.17;100.00;100153.47;4985726;28;20220;-80
2022/09/18 00:57:59;;;;;;;412.27;277.10;;;11.10;99.90;;;11.16;100.00;100157.00;5003184;28;20230;-79
2022/09/18 01:00:28;;;;;;;410.42;273.13;;;11.20;99.90;;;11.17;100.00;100162.31;5001088;28;20234;-80
2022/09/18 01:02:58;;;;;;;402.42;263.38;;;11.10;99.90;;;11.19;100.00;100163.19;5005636;28;20218;-80
2022/09/18 01:05:53;;;;;;;418.80;279.92;;;11.10;99.90;;;11.18;100.00;100172.00;5002902;28;20224;-80
2022/09/18 01:08:55;;;;;;;410.13;270.90;;;11.10;99.90;;;11.19;100.00;100172.91;5003026;28;20261;-80
2022/09/18 01:11:50;;;;;;;409.65;258.60;;;11.20;99.90;;;11.27;100.00;100172.91;4988914;28;20199;-80
2022/09/18 01:14:40;;;;;;;401.60;256.50;;;11.20;99.90;;;11.26;100.00;100169.38;4978244;28;20231;-80
2022/09/18 01:17:14;;;;;;;409.63;276.13;;;11.20;99.90;;;11.24;100.00;100173.78;5003599;28;20222;-82
2022/09/18 01:20:40;;;;;;;404.38;268.17;;;11.10;99.90;;;11.28;100.00;100172.03;4986167;28;20217;-79
2022/09/18 01:23:48;;;;;;;407.30;262.55;;;11.20;99.90;;;11.28;100.00;100177.31;4928176;29;20224;-82
2022/09/18 01:26:48;;;;;;;391.77;261.25;;;11.10;99.90;;;11.23;100.00;100180.84;5003659;28;20203;-79
2022/09/18 01:29:31;;;;;;;423.48;272.50;;;11.20;99.90;;;11.22;100.00;100186.13;5016213;28;20214;-80
2022/09/18 01:32:26;;;;;;;410.38;279.23;;;11.20;99.90;;;11.23;100.00;100193.19;5007113;28;20219;-80
2022/09/18 01:35:17;;;;;;;388.08;259.80;;;11.10;99.90;;;11.23;100.00;100202.03;5007535;28;20235;-80
2022/09/18 01:38:26;;;;;;;404.95;261.17;;;11.20;99.90;;;11.26;100.00;100202.91;4993504;28;20207;-79
2022/09/18 01:41:15;;;;;;;399.60;254.50;;;11.20;99.90;;;11.28;100.00;100195.84;4991231;28;20219;-80
2022/09/18 01:43:44;;;;;;;416.95;273.45;;;11.20;99.90;;;11.28;100.00;100207.31;4990383;28;20215;-83
2022/09/18 01:46:18;;;;;;;412.95;275.30;;;11.20;99.90;;;11.22;100.00;100216.13;4990547;28;20203;-80
2022/09/18 01:48:58;;;;;;;411.73;275.33;;;11.10;99.90;;;11.23;100.00;100220.56;5005026;28;20575;-79
2022/09/18 01:52:17;;;;;;;411.08;280.00;;;11.70;99.90;;;11.26;100.00;100205.56;4989211;28;20207;-81
2022/09/18 01:54:49;;;;;;;405.52;262.80;;;11.20;99.90;;;11.26;100.00;100217.03;4987625;28;20242;-81
2022/09/18 01:57:50;;;;;;;415.05;285.50;;;11.20;99.90;;;11.27;100.00;100216.16;4991118;28;20211;-81
2022/09/18 02:00:20;;;;;;;399.50;253.77;;;11.20;99.90;;;11.25;100.00;100231.16;4997386;28;20202;-80
2022/09/18 02:03:02;;;;;;;407.17;269.95;;;11.20;99.90;;;11.23;100.00;100223.19;4988874;28;20239;-80
2022/09/18 02:06:02;;;;;;;406.38;283.10;;;11.20;99.90;;;11.23;100.00;100217.91;4991567;28;20238;-80
2022/09/18 02:08:40;;;;;;;405.35;264.10;;;11.20;99.90;;;11.18;100.00;100235.53;5013272;28;20549;-80
2022/09/18 02:11:12;;;;;;;405.85;277.92;;;11.10;99.90;;;11.17;100.00;100231.13;4990154;28;20211;-80
2022/09/18 02:14:05;;;;;;;407.25;270.77;;;11.00;99.90;;;11.20;100.00;100243.47;5007232;28;20216;-80
2022/09/18 02:17:10;;;;;;;404.08;271.73;;;11.10;99.90;;;11.15;100.00;100237.28;5004318;28;20218;-80
2022/09/18 02:19:56;;;;;;;407.70;273.15;;;11.10;99.90;;;11.09;100.00;100242.56;4974467;28;20218;-84
2022/09/18 02:22:29;;;;;;;400.80;262.73;;;11.10;99.90;;;11.12;100.00;100245.22;4989995;28;20242;-80
2022/09/18 02:25:03;;;;;;;397.55;266.73;;;11.10;99.90;;;11.10;100.00;100245.22;5005491;28;20253;-80
2022/09/18 02:27:33;;;;;;;406.58;273.45;;;11.10;99.90;;;11.11;100.00;100246.09;5014887;28;20207;-81
2022/09/18 02:30:04;;;;;;;409.00;265.77;;;11.10;99.90;;;11.12;100.00;100248.75;5007308;28;20211;-80
2022/09/18 02:32:38;;;;;;;410.75;274.90;;;11.10;99.90;;;11.12;100.00;100246.09;5007939;28;20214;-80
2022/09/18 02:35:08;;;;;;;402.70;262.23;;;11.10;99.90;;;11.09;100.00;100248.72;5004554;28;20231;-80
2022/09/18 02:37:46;;;;;;;403.83;267.98;;;11.10;99.90;;;11.08;100.00;100246.97;5008252;28;20216;-81
2022/09/18 02:40:32;;;;;;;409.27;262.13;;;11.10;99.90;;;11.05;100.00;100248.72;5021685;28;20218;-80
2022/09/18 02:43:39;;;;;;;404.17;255.20;;;11.10;99.90;;;11.08;100.00;100235.50;5016462;28;20570;-80
2022/09/18 02:46:20;;;;;;;401.40;256.42;;;11.00;99.90;;;11.05;100.00;100238.13;4985704;28;20227;-80
2022/09/18 02:49:15;;;;;;;403.65;262.55;;;11.60;99.90;;;11.07;100.00;100241.66;5002947;28;20211;-80
2022/09/18 02:51:58;;;;;;;407.88;264.25;;;11.00;99.90;;;11.06;100.00;100238.13;5004451;28;20214;-80
2022/09/18 02:54:40;;;;;;;401.80;267.80;;;11.00;99.90;;;11.08;100.00;100246.97;4999899;28;20354;-80
2022/09/18 02:57:19;;;;;;;407.75;264.30;;;10.90;99.90;;;11.04;100.00;100242.53;4989834;28;20210;-82
2022/09/18 02:59:54;;;;;;;413.10;264.77;;;11.00;99.90;;;11.03;100.00;100239.88;4985643;28;20215;-80
2022/09/18 03:02:24;;;;;;;395.88;256.10;;;9.00;99.90;;;11.05;100.00;100238.13;4989371;28;20327;-80
2022/09/18 03:04:53;;;;;;;401.88;259.40;;;11.00;99.90;;;11.05;100.00;100239.00;4987797;28;20223;-79
2022/09/18 03:07:28;;;;;;;407.40;261.05;;;11.00;99.90;;;11.06;100.00;100232.84;5005212;28;20207;-79
2022/09/18 03:09:58;;;;;;;399.48;252.38;;;11.00;99.90;;;11.09;100.00;100237.25;5007079;28;20216;-80
2022/09/18 03:12:26;;;;;;;405.02;263.05;;;11.00;99.90;;;11.09;100.00;100245.19;5002859;28;20227;-81
2022/09/18 03:14:54;;;;;;;408.48;264.27;;;11.10;99.90;;;11.07;100.00;100245.19;5006103;28;20799;-80
2022/09/18 03:17:23;;;;;;;401.10;256.67;;;11.00;99.90;;;11.05;100.00;100244.31;5007021;28;20211;-80
2022/09/18 03:19:52;;;;;;;403.85;269.92;;;11.00;99.90;;;11.05;100.00;100246.06;5003642;28;20701;-80
2022/09/18 03:22:20;;;;;;;406.80;261.80;;;11.00;99.90;;;11.10;100.00;100242.56;5006257;28;20223;-81
2022/09/18 03:25:34;;;;;;;418.92;286.05;;;11.10;99.90;;;11.22;100.00;100242.59;4985798;28;20602;-79
2022/09/18 03:28:03;;;;;;;405.37;250.67;;;11.10;99.90;;;11.19;100.00;100226.72;5000527;28;20204;-80
2022/09/18 03:30:36;;;;;;;413.90;276.83;;;11.10;99.90;;;11.25;100.00;100230.25;4986870;28;20223;-80
2022/09/18 03:33:04;;;;;;;406.48;263.65;;;11.10;99.90;;;11.19;100.00;100231.13;4983952;28;20216;-81
2022/09/18 03:35:33;;;;;;;397.60;266.33;;;11.10;99.90;;;11.17;100.00;100227.59;4982317;28;20238;-80
2022/09/18 03:38:01;;;;;;;408.63;265.20;;;11.10;99.90;;;11.17;100.00;100225.81;4984389;28;20209;-80
2022/09/18 03:40:30;;;;;;;411.48;267.42;;;11.10;99.90;;;11.15;100.00;100234.63;4985735;28;20214;-80
2022/09/18 03:43:03;;;;;;;399.85;254.20;;;11.10;99.90;;;11.11;100.00;100232.88;4985071;28;20234;-81
2022/09/18 03:45:31;;;;;;;409.13;265.52;;;11.00;99.90;;;11.08;100.00;100244.31;4998845;28;20220;-80
2022/09/18 03:48:01;;;;;;;403.02;270.92;;;11.10;99.90;;;11.05;100.00;100241.66;4981997;28;20219;-80
2022/09/18 03:50:30;;;;;;;412.20;276.35;;;11.00;99.90;;;11.03;100.00;100251.34;4989183;28;20204;-79
2022/09/18 03:52:58;;;;;;;396.92;267.33;;;11.00;99.90;;;11.05;100.00;100257.53;4985602;28;20204;-80
2022/09/18 03:55:45;;;;;;;401.38;273.42;;;11.00;99.90;;;11.03;100.00;100264.59;4999612;28;20259;-80
2022/09/18 03:58:33;;;;;;;408.00;264.45;;;11.00;99.90;;;11.03;100.00;100269.00;5002168;28;20208;-80
2022/09/18 04:01:12;;;;;;;394.98;248.52;;;11.00;99.90;;;11.04;100.00;100265.47;4989421;28;20239;-80
2022/09/18 04:04:06;;;;;;;407.10;254.43;;;11.00;99.90;;;11.06;100.00;100277.84;4989930;28;20227;-80
2022/09/18 04:06:59;;;;;;;405.08;269.55;;;11.00;99.90;;;11.06;100.00;100269.88;5007356;28;20208;-80
2022/09/18 04:09:47;;;;;;;408.63;262.67;;;;;;;11.08;100.00;100280.47;5000122;28;20222;-82
2022/09/18 04:12:16;;;;;;;403.73;262.13;;;;;;;11.10;100.00;100279.63;4998639;28;20210;-81
2022/09/18 04:14:47;;;;;;;409.02;267.35;;;8.30;99.90;;;11.14;100.00;100280.50;4984800;28;20239;-80
2022/09/18 04:17:15;;;;;;;402.27;267.58;;;11.00;99.90;;;11.07;100.00;100289.31;4998053;28;20332;-80
2022/09/18 04:19:43;;;;;;;407.13;274.40;;;11.00;99.90;;;11.04;100.00;100289.28;4969256;28;20215;-80
2022/09/18 04:22:11;;;;;;;407.58;282.15;;;11.00;99.90;;;11.02;100.00;100291.94;4984540;28;20220;-80
2022/09/18 04:24:39;;;;;;;399.98;262.45;;;8.80;99.90;;;11.01;100.00;100299.84;4984946;28;20235;-81
2022/09/18 04:27:07;;;;;;;401.38;258.02;;;11.00;99.90;;;10.99;100.00;100298.97;4989555;28;20208;-83
2022/09/18 04:29:37;;;;;;;418.88;279.83;;;11.00;99.90;;;11.01;100.00;100307.78;4982952;28;20215;-80
2022/09/18 04:32:07;;;;;;;403.73;264.88;;;;;;;11.03;100.00;100308.69;4999908;28;20212;-81
2022/09/18 04:34:35;;;;;;;417.20;276.00;;;11.00;99.90;;;11.06;100.00;100303.41;5001684;28;20243;-81
2022/09/18 04:37:03;;;;;;;399.63;271.83;;;11.00;99.90;;;11.02;100.00;100305.16;4968505;28;20686;-81
2022/09/18 04:39:37;;;;;;;406.63;275.65;;;11.00;99.90;;;11.04;100.00;100299.88;4999287;28;20223;-81
2022/09/18 04:42:05;;;;;;;404.95;259.88;;;11.00;99.90;;;11.07;100.00;100299.88;4991585;28;20208;-80
2022/09/18 04:44:33;;;;;;;405.70;267.45;;;11.00;99.90;;;11.07;100.00;100291.94;4969208;28;20257;-80
2022/09/18 04:47:01;;;;;;;398.02;256.67;;;11.00;99.90;;;11.03;100.00;100296.34;4983337;28;20234;-80
2022/09/18 04:49:29;;;;;;;401.98;271.38;;;11.00;99.90;;;11.05;100.00;100302.53;4982842;28;20208;-81
2022/09/18 04:51:56;;;;;;;402.65;271.08;;;11.10;99.90;;;11.12;100.00;100290.22;4972166;28;20204;-80
2022/09/18 04:54:25;;;;;;;400.38;265.90;;;11.10;99.90;;;11.13;100.00;100294.63;4978310;28;20235;-80
2022/09/18 04:56:53;;;;;;;406.42;283.58;;;;;;;11.16;100.00;100284.94;5010025;28;20215;-81
2022/09/18 04:59:21;;;;;;;403.83;270.35;;;11.10;99.90;;;11.24;100.00;100284.97;4996087;28;20200;-82
2022/09/18 05:01:53;;;;;;;398.63;262.63;;;11.10;99.90;;;11.26;100.00;100287.63;4990398;28;20634;-80
2022/09/18 05:04:22;;;;;;;411.92;280.27;;;11.20;99.90;;;11.25;100.00;100289.38;5002374;28;20236;-80
2022/09/18 05:06:56;;;;;;;396.67;260.52;;;11.20;99.90;;;11.30;100.00;100286.75;4981998;28;20207;-80
2022/09/18 05:09:24;;;;;;;399.90;266.05;;;;;;;11.30;100.00;100286.75;4989540;28;20235;-81
2022/09/18 05:11:53;;;;;;;406.58;275.52;;;11.10;99.90;;;11.28;100.00;100285.84;4989056;28;20219;-80
2022/09/18 05:14:23;;;;;;;403.55;251.85;;;;;;;11.28;100.00;100291.16;4989752;28;20223;-81
2022/09/18 05:16:55;;;;;;;411.27;280.88;;;11.20;99.90;;;11.32;100.00;100285.00;4954270;28;20204;-81
2022/09/18 05:19:36;;;;;;;396.83;255.05;;;11.20;99.90;;;11.31;100.00;100288.50;4985763;28;20216;-81
2022/09/18 05:22:10;;;;;;;399.30;267.10;;;;;;;11.32;100.00;100291.16;4973856;28;20200;-82
2022/09/18 05:24:42;;;;;;;397.05;259.65;;;;;;;11.28;100.00;100299.97;4992580;28;20234;-80
2022/09/18 05:27:13;;;;;;;402.42;267.90;;;11.20;99.90;;;11.29;100.00;100303.50;4988605;28;20211;-80
2022/09/18 05:29:41;;;;;;;415.27;288.15;;;;;;;11.28;100.00;100310.56;4987163;28;20223;-81
2022/09/18 05:32:18;;;;;;;410.98;278.75;;;11.20;99.90;;;11.29;100.00;100314.09;4984359;28;20212;-77
2022/09/18 05:34:48;;;;;;;392.13;271.40;;;11.20;99.90;;;11.31;100.00;100320.28;4985196;28;20224;-78
2022/09/18 05:37:18;;;;;;;421.88;278.42;;;;;;;11.29;100.00;100319.41;4982694;28;20204;-77
2022/09/18 05:39:50;;;;;;;416.33;282.00;;;;;;;11.25;100.00;100322.91;4982417;28;20212;-78
2022/09/18 05:42:18;;;;;;;416.70;289.90;;;11.20;99.90;;;11.22;100.00;100326.44;4984574;28;20208;-78
2022/09/18 05:44:46;;;;;;;410.17;283.23;;;11.20;99.90;;;11.21;100.00;100332.59;4985356;28;20243;-77
2022/09/18 05:47:19;;;;;;;410.80;283.10;;;;;;;11.23;100.00;100333.50;4981603;28;20242;-82
2022/09/18 05:49:47;;;;;;;409.85;276.33;;;;;;;11.21;100.00;100341.41;4986359;28;20674;-80
2022/09/18 05:52:15;;;;;;;421.63;291.70;;;11.20;99.90;;;11.23;100.00;100339.66;4998384;28;20204;-80
2022/09/18 05:54:44;;;;;;;412.23;282.67;;;;;;;11.24;100.00;100343.19;4988692;28;20224;-80
2022/09/18 05:57:12;;;;;;;403.65;273.95;;;;;;;11.23;100.00;100344.06;4988279;28;20200;-81
2022/09/18 05:59:40;;;;;;;402.63;275.92;;;;;;;11.23;100.00;100346.72;5004499;28;20200;-81
2022/09/18 06:02:13;;;;;;;400.40;275.40;;;11.20;99.90;;;11.25;100.00;100349.38;4998867;28;20211;-81
2022/09/18 06:04:59;;;;;;;399.30;279.17;;;11.20;99.90;;;11.29;100.00;100360.00;5002541;28;20230;-81
2022/09/18 06:07:27;;;;;;;401.05;269.40;;;11.20;99.90;;;11.31;100.00;100346.75;4993900;28;20208;-80
2022/09/18 06:09:58;;;;;;;401.02;266.30;;;;;;;11.36;100.00;100353.84;5009138;28;20227;-80
2022/09/18 06:12:26;;;;;;;404.20;275.38;;;11.30;99.90;;;11.39;100.00;100353.84;5007749;28;20211;-78
2022/09/18 06:14:54;;;;;;;399.42;265.38;;;;;;;11.40;100.00;100352.97;5008539;28;20231;-78
2022/09/18 06:17:24;;;;;;;412.65;284.13;;;11.30;99.90;;;11.45;100.00;100358.28;4985309;28;20201;-78
2022/09/18 06:19:59;;;;;;;396.88;269.10;;;;;;;11.46;100.00;100355.66;4991158;28;20207;-78
2022/09/18 06:22:27;;;;;;;398.75;287.17;;;;;;;11.46;100.00;100360.06;5006402;28;20211;-78
2022/09/18 06:24:57;;;;;;;402.02;278.23;;;;;;;11.47;100.00;100364.47;4985209;28;20632;-78
2022/09/18 06:27:32;;;;;;;412.52;278.40;;;11.50;99.90;;;11.54;100.00;100359.22;5003209;28;20200;-78
2022/09/18 06:30:01;;;;;;;401.23;268.35;;;;;;;11.57;100.00;100368.94;4988222;28;20208;-79
2022/09/18 06:32:33;;;;;;;408.30;282.58;;;;;;;11.59;100.00;100359.22;4991009;28;20210;-78
2022/09/18 06:35:01;;;;;;;417.65;291.92;;;;;;;11.62;100.00;100358.34;4986256;28;20235;-80
2022/09/18 06:37:29;;;;;;;404.98;286.80;;;11.60;99.90;;;11.64;100.00;100362.78;4992299;28;20216;-80
2022/09/18 06:40:10;;;;;;;415.30;286.02;;;11.60;99.90;;;11.68;100.00;100356.63;4977403;28;20212;-81
2022/09/18 06:43:04;;;;;;;397.48;271.17;;;;;;;11.69;100.00;100368.09;4996693;28;20212;-81
2022/09/18 06:46:04;;;;;;;403.63;286.88;;;11.60;99.90;;;11.68;100.00;100353.97;4989349;28;20223;-80
2022/09/18 06:48:39;;;;;;;398.27;292.20;;;;;;;11.73;100.00;100356.66;5009719;28;20619;-80
2022/09/18 06:51:08;;;;;;;414.42;328.17;;;11.70;99.90;;;11.77;100.00;100361.09;4991331;28;20208;-80
2022/09/18 06:53:56;;;;;;;416.38;313.25;;;;;;;11.79;100.00;100354.94;5004435;28;20212;-80
2022/09/18 06:56:25;;;;;;;405.48;288.65;;;;;;;11.83;100.00;100364.69;4989972;28;20214;-81
2022/09/18 06:58:54;;;;;;;419.83;300.10;;;;;;;11.87;100.00;100362.03;4986329;28;20203;-80
2022/09/18 07:01:22;;;;;;;419.13;304.63;;;;;;;11.91;100.00;100356.75;4986206;28;20208;-80
2022/09/18 07:04:02;;;;;;;404.30;288.42;;;11.90;99.90;;;11.95;100.00;100363.81;4986574;28;20239;-79
2022/09/18 07:06:44;;;;;;;404.50;302.92;;;11.90;99.90;;;12.03;100.00;100366.50;4997967;28;20204;-80
2022/09/18 07:09:14;;;;;;;404.00;299.67;;;;;;;12.04;100.00;100371.78;4990454;28;20220;-81
2022/09/18 07:12:03;;;;;;;403.48;301.13;;;;;;;12.10;100.00;100370.91;4990963;28;20207;-79
2022/09/18 07:14:45;;;;;;;407.73;301.30;;;;;;;12.14;100.00;100378.88;4994571;28;20226;-83
2022/09/18 07:17:15;;;;;;;400.88;304.85;;;;;;;12.15;100.00;100363.84;4994780;28;20200;-79
2022/09/18 07:19:48;;;;;;;408.38;313.90;;;;;;;12.23;100.00;100362.09;4992934;28;20208;-80
2022/09/18 07:22:18;;;;;;;403.95;305.63;;;;;;;12.25;100.00;100357.69;4993803;28;20208;-81
2022/09/18 07:24:50;;;;;;;402.23;301.40;;;12.30;99.90;;;12.38;100.00;100385.09;4992988;28;20251;-80
2022/09/18 07:27:18;;;;;;;403.08;302.63;;;;;;;12.35;100.00;100364.75;5008336;28;20223;-80
2022/09/18 07:29:49;;;;;;;419.75;322.77;;;;;;;12.36;100.00;100371.84;4986804;28;20227;-80
2022/09/18 07:32:20;;;;;;;412.88;328.55;;;;;;;12.40;100.00;100378.91;4972439;28;20218;-80
2022/09/18 07:34:49;;;;;;;411.13;330.85;;;;;;;12.47;100.00;100388.63;4986168;28;20227;-78
2022/09/18 07:37:29;;;;;;;408.17;325.73;;;;;;;12.56;100.00;100389.53;4975481;28;20204;-79
2022/09/18 07:40:35;;;;;;;417.75;329.70;;;12.50;99.90;;;12.60;100.00;100376.25;4957531;28;20201;-78
2022/09/18 07:43:09;;;;;;;425.52;343.75;;;12.60;99.90;;;12.64;100.00;100372.72;4942013;28;20213;-78
2022/09/18 07:45:44;;;;;;;416.10;345.48;;;;;;;12.65;100.00;100371.84;4974510;28;20239;-77
2022/09/18 07:48:13;;;;;;;412.80;340.10;;;;;;;12.73;100.00;100377.13;4993411;28;20216;-77
2022/09/18 07:50:46;;;;;;;410.33;331.33;;;;;;;12.80;100.00;100365.63;4993977;28;20204;-78
2022/09/18 07:53:17;;;;;;;420.50;353.67;;;;;;;12.79;100.00;100358.56;4988952;28;20208;-78
2022/09/18 07:55:48;;;;;;;410.70;340.15;;;;;;;12.91;100.00;100370.94;4991609;28;20246;-78
2022/09/18 07:58:18;;;;;;;410.70;348.17;;;13.00;99.90;;;13.02;100.00;100377.13;4992583;28;20208;-78
2022/09/18 08:01:02;;;;;;;412.10;346.90;;;12.90;99.90;;;12.89;100.00;100346.16;4979207;28;20209;-78
2022/09/18 08:03:32;;;;;;;417.20;360.35;;;;;;;12.88;100.00;100339.09;5005624;28;20215;-77
2022/09/18 08:06:11;;;;;;;411.17;347.60;;;;;;;12.85;100.00;100355.00;5008422;28;20211;-78
2022/09/18 08:08:58;;;;;;;413.25;348.65;;;13.00;99.90;;;12.96;100.00;100375.34;5003225;28;20582;-78
2022/09/18 08:11:55;;;;;;;405.42;352.33;;;13.10;99.90;;;13.09;100.00;100387.75;4976645;28;20210;-78
2022/09/18 08:14:46;;;;;;;415.55;362.45;;;;;;;13.16;100.00;100393.03;4971261;28;20216;-78
2022/09/18 08:17:25;;;;;;;416.67;363.52;;;13.10;99.90;;;13.12;100.00;100374.47;4984817;28;20204;-80
2022/09/18 08:20:05;;;;;;;416.65;366.48;;;;;;;13.22;100.00;100379.78;4991492;28;20207;-80
2022/09/18 08:22:54;;;;;;;409.70;358.67;;;13.30;99.90;;;13.21;100.00;100370.03;4987343;28;20204;-80
2022/09/18 08:25:26;;;;;;;420.63;374.55;;;13.30;99.90;;;13.20;100.00;100368.28;5002404;28;20236;-80
2022/09/18 08:28:03;;;;;;;417.35;370.98;;;13.20;99.90;;;13.28;100.00;100380.66;4986989;28;20207;-82
2022/09/18 08:30:46;;;;;;;428.42;382.02;;;;;;;13.20;100.00;100360.31;4976424;28;20218;-80
2022/09/18 08:33:14;;;;;;;422.92;375.33;;;;;;;13.41;100.00;100374.41;5008081;28;20200;-80
2022/09/18 08:35:43;;;;;;;444.40;397.13;;;;;;;13.38;100.00;100371.75;4958969;28;20229;-80
2022/09/18 08:38:24;;;;;;;444.00;397.35;;;13.40;99.90;;;13.45;100.00;100356.69;4990071;28;20223;-80
2022/09/18 08:41:25;;;;;;;441.45;394.77;;;13.50;99.90;;;13.53;100.00;100351.34;5007617;28;20207;-80
2022/09/18 08:44:03;;;;;;;432.50;385.55;;;;;;;13.59;100.00;100324.75;4965075;28;20207;-80
2022/09/18 08:46:59;;;;;;;433.38;386.98;;;13.70;99.90;;;13.74;100.00;100335.28;4991531;28;20215;-80
2022/09/18 08:49:44;;;;;;;440.08;392.83;;;13.90;99.90;;;13.89;100.00;100355.59;4977186;28;20203;-78
2022/09/18 08:52:21;;;;;;;437.80;391.42;;;13.90;99.90;;;13.87;100.00;100338.75;4980052;28;20708;-78
2022/09/18 08:55:29;;;;;;;459.13;411.42;;;13.90;99.90;;;13.78;100.00;100314.00;5002162;28;20227;-77
2022/09/18 08:58:55;;;;;;;450.10;403.67;;;13.80;99.90;;;13.81;100.00;100299.81;4977805;28;20204;-78
2022/09/18 09:02:08;;;;;;;454.02;407.02;;;13.90;99.90;;;13.96;100.00;100310.34;4979977;28;20219;-78
2022/09/18 09:04:36;;;;;;;456.50;409.10;;;14.00;99.90;;;14.04;100.00;100312.94;4954440;28;20229;-78
2022/09/18 09:07:38;;;;;;;455.45;408.67;;;14.10;99.90;;;14.13;100.00;100325.28;4940859;28;20209;-78
2022/09/18 09:10:29;;;;;;;477.35;430.15;;;14.20;99.90;;;14.09;100.00;100311.13;5011785;28;20204;-78
2022/09/18 09:13:16;;;;;;;454.55;408.08;;;14.20;99.90;;;13.85;100.00;100274.97;4991498;28;20204;-77
2022/09/18 09:15:53;;;;;;;478.50;430.92;;;14.20;99.90;;;13.93;100.00;100281.13;4990110;28;20224;-78
2022/09/18 09:19:12;;;;;;;467.65;420.63;;;14.10;99.90;;;13.95;100.00;100263.38;4980610;28;20200;-78
2022/09/18 09:22:21;;;;;;;497.42;448.42;;;14.20;99.90;;;14.37;100.00;100309.16;4993653;28;20197;-78
2022/09/18 09:25:05;;;;;;;472.27;425.52;;;14.40;99.90;;;14.41;100.00;100284.31;4971581;28;20601;-78
2022/09/18 09:28:59;;;;;;;477.00;429.88;;;17.50;99.90;;;14.44;100.00;100279.00;4994333;28;20220;-78
2022/09/18 09:32:20;;;;;;;473.58;426.38;;;14.50;99.90;;;14.58;99.92;100266.44;4968254;28;20207;-79
2022/09/18 09:35:25;;;;;;;482.55;434.30;;;14.60;99.90;;;14.57;99.34;100243.38;4970766;28;20223;-77
2022/09/18 09:38:40;;;;;;;507.23;457.45;;;14.70;99.90;;;14.62;97.82;100227.38;4983683;28;20214;-77
2022/09/18 09:41:37;;;;;;;501.98;453.70;;;14.70;99.90;;;14.67;99.28;100241.50;4969841;28;20204;-77
2022/09/18 09:44:48;;;;;;;501.35;453.88;;;14.70;99.90;;;14.57;96.61;100207.91;4991207;28;20239;-78
2022/09/18 09:47:56;;;;;;;494.33;446.42;;;14.70;99.90;;;14.58;94.82;100183.06;4983294;28;20568;-77
2022/09/18 09:50:30;;;;;;;507.30;458.75;;;;;;;14.69;95.83;100200.66;4965543;28;20207;-77
2022/09/18 09:53:03;;;;;;;536.60;487.35;;;14.90;99.90;;;14.94;97.83;100242.97;5000407;28;20212;-78
2022/09/18 09:55:42;;;;;;;522.45;474.05;;;14.80;99.90;;;14.59;95.52;100168.84;4985639;28;20235;-77
2022/09/18 09:58:34;;;;;;;536.45;486.35;;;14.90;99.90;;;14.97;96.11;100221.63;4988001;28;20200;-77
2022/09/18 10:01:45;;;;;;;556.55;505.60;;;15.00;99.90;;;14.98;94.80;100202.09;4984426;28;20212;-79
2022/09/18 10:04:50;;;;;;;544.10;494.17;;;15.10;99.90;;;14.95;94.40;100170.19;4973945;28;20323;-79
2022/09/18 10:07:45;;;;;;;536.00;486.80;;;15.10;99.90;;;14.79;93.31;100142.88;4985380;28;20213;-78
2022/09/18 10:10:40;;;;;;;541.15;492.05;;;15.00;99.90;;;14.94;93.67;100163.09;4969261;28;20208;-77
2022/09/18 10:13:38;;;;;;;533.08;483.58;;;15.00;99.90;;;14.92;92.15;100138.28;4970049;28;20279;-77
2022/09/18 10:16:21;;;;;;;539.15;490.65;;;15.10;99.90;;;15.04;92.55;100144.31;4965527;28;20228;-77
2022/09/18 10:18:49;;;;;;;537.95;487.77;;;;;;;15.25;92.31;100168.88;4986596;28;20215;-76
2022/09/18 10:21:23;;;;;;;547.08;498.17;;;15.40;99.90;;;15.18;91.52;100135.25;4990289;28;20666;-77
2022/09/18 10:24:07;;;;;;;566.17;515.55;;;15.30;99.90;;;15.40;92.01;100168.66;5004133;28;20217;-75
2022/09/18 10:26:53;;;;;;;562.13;512.53;;;15.40;99.90;;;15.45;90.86;100141.94;4985485;28;20226;-77
2022/09/18 10:29:21;;;;;;;549.70;501.05;;;;;;;15.27;89.02;100101.34;4990333;28;20292;-77
2022/09/18 10:31:57;;;;;;;566.40;516.63;;;15.60;99.90;;;15.60;90.31;100137.31;4994545;28;20231;-77
2022/09/18 10:34:48;;;;;;;560.30;510.60;;;15.60;99.90;;;15.76;88.04;100107.75;4971305;28;20226;-78
2022/09/18 10:37:29;;;;;;;573.88;523.33;;;;;;;16.02;88.26;100118.81;4967400;28;20223;-77
2022/09/18 10:40:04;;;;;;;596.50;545.67;;;16.30;99.90;;;16.44;89.83;100166.94;4983416;28;20685;-77
2022/09/18 10:42:35;;;;;;;580.40;530.65;;;16.20;99.90;;;16.19;85.62;100066.03;4996446;28;20204;-77
2022/09/18 10:45:29;;;;;;;611.28;560.80;;;16.50;99.90;;;16.85;85.61;100108.28;4978400;28;20298;-76
2022/09/18 10:48:22;;;;;;;618.15;567.10;;;16.80;99.90;;;17.03;84.62;100090.13;4969607;28;20200;-76